createdAt,value
2023-04-22T00:02:06.793Z,13.29
2023-04-22T00:04:37.284Z,13.12
2023-04-22T00:07:08.719Z,13.44
2023-04-22T00:09:38.057Z,13.64
2023-04-22T00:12:08.188Z,13.67
2023-04-22T00:14:37.443Z,13.57
2023-04-22T00:17:07.973Z,13.31
2023-04-22T00:19:37.584Z,13.09
2023-04-22T00:22:08.510Z,12.74
2023-04-22T00:24:37.668Z,12.68
2023-04-22T00:27:08.108Z,12.65
2023-04-22T00:29:37.642Z,12.31
2023-04-22T00:32:07.489Z,12.70
2023-04-22T00:34:36.743Z,12.67
2023-04-22T00:37:07.720Z,12.84
2023-04-22T00:39:39.760Z,13.03
2023-04-22T00:42:09.855Z,13.09
2023-04-22T00:44:39.264Z,12.96
2023-04-22T00:47:09.810Z,13.27
2023-04-22T00:49:39.362Z,13.16
2023-04-22T00:52:10.544Z,12.89
2023-04-22T00:54:39.868Z,12.93
2023-04-22T00:57:09.464Z,12.86
2023-04-22T00:59:39.124Z,12.84
2023-04-22T01:02:09.516Z,12.95
2023-04-22T01:04:39.378Z,12.88
2023-04-22T01:07:10.303Z,12.88
2023-04-22T01:09:40.235Z,12.80
2023-04-22T01:12:10.314Z,12.96
2023-04-22T01:14:39.776Z,12.54
2023-04-22T01:17:13.904Z,12.79
2023-04-22T01:19:43.900Z,12.77
2023-04-22T01:22:16.175Z,12.85
2023-04-22T01:24:47.140Z,12.63
2023-04-22T01:27:16.646Z,12.33
2023-04-22T01:29:46.157Z,12.59
2023-04-22T01:32:15.730Z,12.57
2023-04-22T01:34:45.031Z,12.55
2023-04-22T01:37:15.487Z,12.26
2023-04-22T01:39:46.841Z,12.42
2023-04-22T01:42:17.196Z,12.28
2023-04-22T01:44:47.453Z,12.48
2023-04-22T01:47:17.288Z,12.55
2023-04-22T01:49:46.502Z,12.28
2023-04-22T01:52:16.006Z,12.35
2023-04-22T01:54:46.775Z,12.55
2023-04-22T01:57:16.716Z,12.64
2023-04-22T01:59:46.391Z,12.85
2023-04-22T02:02:17.202Z,12.77
2023-04-22T02:04:46.709Z,12.62
2023-04-22T02:07:16.515Z,12.71
2023-04-22T02:09:50.222Z,12.87
2023-04-22T02:12:20.225Z,12.94
2023-04-22T02:14:49.399Z,13.04
2023-04-22T02:17:18.945Z,12.75
2023-04-22T02:19:48.891Z,12.73
2023-04-22T02:22:19.138Z,12.81
2023-04-22T02:24:49.975Z,12.78
2023-04-22T02:27:19.380Z,12.83
2023-04-22T02:29:50.268Z,12.93
2023-04-22T02:36:12.273Z,12.70
2023-04-22T02:38:41.542Z,12.62
2023-04-22T02:41:12.494Z,12.67
2023-04-22T02:43:46.060Z,12.84
2023-04-22T02:46:16.876Z,12.92
2023-04-22T02:48:46.150Z,12.61
2023-04-22T02:51:15.600Z,12.59
2023-04-22T02:53:44.737Z,12.17
2023-04-22T02:56:15.557Z,12.28
2023-04-22T02:58:44.877Z,12.39
2023-04-22T03:01:14.311Z,12.45
2023-04-22T03:03:44.370Z,12.52
2023-04-22T03:06:19.166Z,12.38
2023-04-22T03:08:48.436Z,11.97
2023-04-22T03:11:19.259Z,11.86
2023-04-22T03:13:48.386Z,12.12
2023-04-22T03:16:19.019Z,12.05
2023-04-22T03:18:48.528Z,12.17
2023-04-22T03:21:18.261Z,12.04
2023-04-22T03:23:47.383Z,12.39
2023-04-22T03:26:18.344Z,12.50
2023-04-22T03:28:47.936Z,12.44
2023-04-22T03:31:17.847Z,12.19
2023-04-22T03:33:48.316Z,12.34
2023-04-22T03:36:28.440Z,12.58
2023-04-22T03:38:58.826Z,12.68
2023-04-22T03:41:30.381Z,12.63
2023-04-22T03:44:01.651Z,12.30
2023-04-22T03:46:32.737Z,12.49
2023-04-22T03:49:13.001Z,12.49
2023-04-22T03:51:42.473Z,12.57
2023-04-22T03:54:15.356Z,12.07
2023-04-22T03:56:52.164Z,12.52
2023-04-22T03:59:23.348Z,12.59
2023-04-22T04:01:54.306Z,12.68
2023-04-22T04:04:29.468Z,12.73
2023-04-22T04:07:02.663Z,12.71
2023-04-22T04:09:32.011Z,12.50
2023-04-22T04:12:03.027Z,12.68
2023-04-22T04:14:37.107Z,12.68
2023-04-22T04:17:10.223Z,12.38
2023-04-22T04:19:40.248Z,12.22
2023-04-22T04:22:10.674Z,12.61
2023-04-22T04:24:48.218Z,12.67
2023-04-22T04:27:24.834Z,13.05
2023-04-22T04:29:56.716Z,13.19
2023-04-22T04:32:43.030Z,13.44
2023-04-22T04:35:15.124Z,13.34
2023-04-22T04:37:50.857Z,13.30
2023-04-22T04:40:20.161Z,13.53
2023-04-22T04:42:57.583Z,13.75
2023-04-22T04:45:32.626Z,13.72
2023-04-22T04:48:02.928Z,13.84
2023-04-22T04:50:38.124Z,13.95
2023-04-22T04:53:08.573Z,13.69
2023-04-22T04:55:41.370Z,13.82
2023-04-22T04:58:19.925Z,13.90
2023-04-22T05:00:53.102Z,13.97
2023-04-22T05:03:22.995Z,13.88
2023-04-22T05:05:52.798Z,14.14
2023-04-22T05:08:22.409Z,14.21
2023-04-22T05:10:53.339Z,14.34
2023-04-22T05:13:24.311Z,14.53
2023-04-22T05:15:53.395Z,14.60
2023-04-22T05:18:23.294Z,14.80
2023-04-22T05:20:52.503Z,15.13
2023-04-22T05:23:23.733Z,15.34
2023-04-22T05:25:56.096Z,15.40
2023-04-22T05:28:27.693Z,15.48
2023-04-22T05:30:59.662Z,15.59
2023-04-22T05:33:31.634Z,15.75
2023-04-22T05:36:00.940Z,15.92
2023-04-22T05:38:30.798Z,16.07
2023-04-22T05:40:59.995Z,16.16
2023-04-22T05:43:30.855Z,16.38
2023-04-22T05:46:07.329Z,16.55
2023-04-22T05:48:39.980Z,16.68
2023-04-22T05:51:12.670Z,16.82
2023-04-22T05:53:42.201Z,16.92
2023-04-22T05:56:12.689Z,17.11
2023-04-22T05:58:43.632Z,17.31
2023-04-22T06:01:16.851Z,17.51
2023-04-22T06:04:12.828Z,17.77
2023-04-22T06:06:42.301Z,18.01
2023-04-22T06:09:12.157Z,17.99
2023-04-22T06:11:43.044Z,17.87
2023-04-22T06:14:13.968Z,18.11
2023-04-22T06:16:45.503Z,18.53
2023-04-22T06:19:14.995Z,19.05
2023-04-22T06:21:44.101Z,19.36
2023-04-22T06:24:13.692Z,19.39
2023-04-22T06:26:44.842Z,19.81
2023-04-22T06:29:16.032Z,19.87
2023-04-22T06:31:45.370Z,20.06
2023-04-22T06:34:14.940Z,20.22
2023-04-22T06:36:45.216Z,20.53
2023-04-22T06:39:14.758Z,20.68
2023-04-22T06:42:04.232Z,20.85
2023-04-22T06:44:51.235Z,21.08
2023-04-22T06:47:29.701Z,21.01
2023-04-22T06:50:11.224Z,21.19
2023-04-22T06:53:00.533Z,21.22
2023-04-22T06:55:31.016Z,21.24
2023-04-22T06:58:00.521Z,21.32
2023-04-22T07:00:31.476Z,21.58
2023-04-22T07:03:01.334Z,21.56
2023-04-22T07:05:32.133Z,21.58
2023-04-22T07:08:02.248Z,22.14
2023-04-22T07:10:31.645Z,22.15
2023-04-22T07:13:19.664Z,22.14
2023-04-22T07:15:50.536Z,22.13
2023-04-22T07:18:19.814Z,22.22
2023-04-22T07:20:49.303Z,21.88
2023-04-22T07:23:18.600Z,22.19
2023-04-22T07:25:47.954Z,22.34
2023-04-22T07:28:17.205Z,22.62
2023-04-22T07:30:47.221Z,22.54
2023-04-22T07:33:17.877Z,22.39
2023-04-22T07:35:47.652Z,22.86
2023-04-22T07:38:16.958Z,22.90
2023-04-22T07:40:46.666Z,23.25
2023-04-22T07:43:15.805Z,23.08
2023-04-22T07:45:45.469Z,23.19
2023-04-22T07:48:16.232Z,23.24
2023-04-22T07:50:45.708Z,23.50
2023-04-22T07:53:16.019Z,23.76
2023-04-22T07:55:45.974Z,23.74
2023-04-22T07:58:15.207Z,23.45
2023-04-22T08:00:44.785Z,24.18
2023-04-22T08:03:14.803Z,24.01
2023-04-22T08:05:45.925Z,24.34
2023-04-22T08:08:15.434Z,24.42
2023-04-22T08:10:45.121Z,24.48
2023-04-22T08:13:15.813Z,24.56
2023-04-22T08:15:46.692Z,24.93
2023-04-22T08:18:16.146Z,24.77
2023-04-22T08:20:48.334Z,24.56
2023-04-22T08:23:17.508Z,24.86
2023-04-22T08:25:46.891Z,23.97
2023-04-22T08:28:16.610Z,24.73
2023-04-22T08:30:46.016Z,24.36
2023-04-22T08:33:15.176Z,25.08
2023-04-22T08:35:46.146Z,24.82
2023-04-22T08:38:15.672Z,25.13
2023-04-22T08:40:45.106Z,25.65
2023-04-22T08:43:14.945Z,25.25
2023-04-22T08:45:44.539Z,25.65
2023-04-22T08:48:14.542Z,25.37
2023-04-22T08:50:44.515Z,25.82
2023-04-22T08:53:15.223Z,26.00
2023-04-22T08:55:46.693Z,26.03
2023-04-22T08:58:15.887Z,25.80
2023-04-22T09:00:45.977Z,25.52
2023-04-22T09:03:16.953Z,26.16
2023-04-22T09:05:48.476Z,25.69
2023-04-22T09:08:19.376Z,25.35
2023-04-22T09:10:49.176Z,25.16
2023-04-22T09:13:19.652Z,25.75
2023-04-22T09:15:49.729Z,26.26
2023-04-22T09:18:20.016Z,25.95
2023-04-22T09:20:50.829Z,25.93
2023-04-22T09:23:22.274Z,26.47
2023-04-22T09:25:51.950Z,27.28
2023-04-22T09:28:21.329Z,27.76
2023-04-22T09:30:50.733Z,27.44
2023-04-22T09:33:19.941Z,27.18
2023-04-22T09:35:49.397Z,27.55
2023-04-22T09:38:18.544Z,28.26
2023-04-22T09:40:49.565Z,28.43
2023-04-22T09:43:20.940Z,27.24
2023-04-22T09:45:50.422Z,27.58
2023-04-22T09:48:21.721Z,28.21
2023-04-22T09:50:53.107Z,28.21
2023-04-22T09:53:23.243Z,27.65
2023-04-22T09:55:56.065Z,28.63
2023-04-22T09:58:27.642Z,28.69
2023-04-22T10:00:59.532Z,28.50
2023-04-22T10:03:28.867Z,28.36
2023-04-22T10:05:58.957Z,27.95
2023-04-22T10:08:28.643Z,29.34
2023-04-22T10:10:59.440Z,29.49
2023-04-22T10:13:28.643Z,29.14
2023-04-22T10:15:58.934Z,29.83
2023-04-22T10:18:29.401Z,30.40
2023-04-22T10:21:00.683Z,29.91
2023-04-22T10:23:34.361Z,30.27
2023-04-22T10:26:07.505Z,30.16
2023-04-22T10:28:36.735Z,30.76
2023-04-22T10:31:21.214Z,30.26
2023-04-22T10:33:50.519Z,29.93
2023-04-22T10:36:21.785Z,29.22
2023-04-22T10:39:18.954Z,29.83
2023-04-22T10:41:55.326Z,29.64
2023-04-22T10:44:28.849Z,29.57
2023-04-22T10:47:02.167Z,30.19
2023-04-22T10:49:35.078Z,30.49
2023-04-22T10:52:06.453Z,30.47
2023-04-22T10:54:57.930Z,31.14
2023-04-22T10:57:37.857Z,31.08
2023-04-22T11:00:53.011Z,30.82
2023-04-22T11:03:29.388Z,31.95
2023-04-22T11:06:19.281Z,31.89
2023-04-22T11:08:49.634Z,32.01
2023-04-22T11:11:20.123Z,31.90
2023-04-22T11:13:51.993Z,32.58
2023-04-22T11:16:24.545Z,33.24
2023-04-22T11:18:56.968Z,33.52
2023-04-22T11:21:27.738Z,32.94
2023-04-22T11:24:02.822Z,32.38
2023-04-22T11:26:36.369Z,32.60
2023-04-22T11:29:07.243Z,32.92
2023-04-22T11:31:37.808Z,33.44
2023-04-22T11:34:10.025Z,33.69
2023-04-22T11:36:39.335Z,32.45
2023-04-22T11:39:15.013Z,33.24
2023-04-22T11:41:44.706Z,32.70
2023-04-22T11:44:17.686Z,32.50
2023-04-22T11:46:46.854Z,32.69
2023-04-22T11:49:16.801Z,32.70
2023-04-22T11:51:56.876Z,32.85
2023-04-22T11:54:34.102Z,33.03
2023-04-22T11:57:05.131Z,32.38
2023-04-22T11:59:36.174Z,32.78
2023-04-22T12:02:07.467Z,32.48
2023-04-22T12:04:41.283Z,32.39
2023-04-22T12:07:10.569Z,31.63
2023-04-22T12:09:41.777Z,32.05
2023-04-22T12:12:11.254Z,33.20
2023-04-22T12:14:46.360Z,33.39
2023-04-22T12:17:16.540Z,33.99
2023-04-22T12:19:49.109Z,34.27
2023-04-22T12:22:27.160Z,33.55
2023-04-22T12:24:59.529Z,33.55
2023-04-22T12:27:29.017Z,33.91
2023-04-22T12:30:00.286Z,33.96
2023-04-22T12:32:29.553Z,33.79
2023-04-22T12:34:59.226Z,33.67
2023-04-22T12:37:30.099Z,34.60
2023-04-22T12:39:59.597Z,33.96
2023-04-22T12:42:28.739Z,34.45
2023-04-22T12:44:59.696Z,35.65
2023-04-22T12:47:29.014Z,35.27
2023-04-22T12:50:01.417Z,34.46
2023-04-22T12:52:31.328Z,34.59
2023-04-22T12:55:01.018Z,32.53
2023-04-22T12:57:30.584Z,33.07
2023-04-22T13:00:01.753Z,33.86
2023-04-22T13:02:31.122Z,34.11
2023-04-22T13:05:00.918Z,34.27
2023-04-22T13:07:30.078Z,34.24
2023-04-22T13:09:59.951Z,33.85
2023-04-22T13:12:29.046Z,34.32
2023-04-22T13:14:58.638Z,34.70
2023-04-22T13:17:29.357Z,35.12
2023-04-22T13:19:59.087Z,34.50
2023-04-22T13:22:28.677Z,34.86
2023-04-22T13:24:58.098Z,34.55
2023-04-22T13:27:27.733Z,34.11
2023-04-22T13:29:58.423Z,34.28
2023-04-22T13:32:29.038Z,34.18
2023-04-22T13:34:59.536Z,34.53
2023-04-22T13:37:30.101Z,33.11
2023-04-22T13:39:59.654Z,34.13
2023-04-22T13:42:28.776Z,34.75
2023-04-22T13:44:58.392Z,35.00
2023-04-22T13:47:27.557Z,35.22
2023-04-22T13:50:00.309Z,34.46
2023-04-22T13:52:29.407Z,33.84
2023-04-22T13:54:59.014Z,34.31
2023-04-22T13:57:28.215Z,33.06
2023-04-22T13:59:57.649Z,33.01
2023-04-22T14:02:26.951Z,32.30
2023-04-22T14:04:58.859Z,33.72
2023-04-22T14:07:28.486Z,33.57
2023-04-22T14:09:57.887Z,33.61
2023-04-22T14:12:26.989Z,33.64
2023-04-22T14:14:56.394Z,33.18
2023-04-22T14:17:27.704Z,32.48
2023-04-22T14:19:58.686Z,33.13
2023-04-22T14:22:27.839Z,33.00
2023-04-22T14:24:57.462Z,32.66
2023-04-22T14:27:27.202Z,32.71
2023-04-22T14:29:56.683Z,33.34
2023-04-22T14:32:26.514Z,33.41
2023-04-22T14:34:57.329Z,32.68
2023-04-22T14:37:26.977Z,32.98
2023-04-22T14:39:57.592Z,33.31
2023-04-22T14:42:27.324Z,33.82
2023-04-22T14:44:56.783Z,34.69
2023-04-22T14:47:25.909Z,34.81
2023-04-22T14:49:55.800Z,34.86
2023-04-22T14:52:26.386Z,34.62
2023-04-22T14:54:55.683Z,34.73
2023-04-22T14:57:24.837Z,35.20
2023-04-22T14:59:54.212Z,34.79
2023-04-22T15:02:23.604Z,35.82
2023-04-22T15:04:53.436Z,35.33
2023-04-22T15:07:22.660Z,35.87
2023-04-22T15:09:53.805Z,36.54
2023-04-22T15:12:23.378Z,37.79
2023-04-22T15:14:53.342Z,38.92
2023-04-22T15:17:23.493Z,39.14
2023-04-22T15:19:54.101Z,39.22
2023-04-22T15:22:23.291Z,37.59
2023-04-22T15:24:54.282Z,39.20
2023-04-22T15:27:23.492Z,38.18
2023-04-22T15:29:53.297Z,39.25
2023-04-22T15:32:22.580Z,38.82
2023-04-22T15:34:52.320Z,39.58
2023-04-22T15:37:21.440Z,40.20
2023-04-22T15:39:50.946Z,39.42
2023-04-22T15:42:21.656Z,37.84
2023-04-22T15:44:51.250Z,38.57
2023-04-22T15:47:20.447Z,35.88
2023-04-22T15:49:49.973Z,36.09
2023-04-22T15:52:19.581Z,37.12
2023-04-22T15:54:49.915Z,34.47
2023-04-22T15:57:20.505Z,33.40
2023-04-22T15:59:56.313Z,32.19
2023-04-22T16:02:32.402Z,33.45
2023-04-22T16:05:02.037Z,33.32
2023-04-22T16:07:31.731Z,32.12
2023-04-22T16:10:01.147Z,30.56
2023-04-22T16:12:33.923Z,30.44
2023-04-22T16:15:03.959Z,29.61
2023-04-22T16:17:33.196Z,30.60
2023-04-22T16:20:03.155Z,30.22
2023-04-22T16:22:32.364Z,29.51
2023-04-22T16:25:01.846Z,28.84
2023-04-22T16:27:32.546Z,28.78
2023-04-22T16:30:02.066Z,29.05
2023-04-22T16:32:31.465Z,28.87
2023-04-22T16:35:01.434Z,27.98
2023-04-22T16:37:31.138Z,28.04
2023-04-22T16:40:00.887Z,27.83
2023-04-22T16:42:31.968Z,26.98
2023-04-22T16:45:01.413Z,25.85
2023-04-22T16:47:30.498Z,26.25
2023-04-22T16:50:00.069Z,25.78
2023-04-22T16:52:29.416Z,26.28
2023-04-22T16:54:58.886Z,26.31
2023-04-22T16:57:28.185Z,26.63
2023-04-22T16:59:58.932Z,26.37
2023-04-22T17:02:28.277Z,26.35
2023-04-22T17:04:57.824Z,25.94
2023-04-22T17:07:27.028Z,25.84
2023-04-22T17:09:56.517Z,26.09
2023-04-22T17:12:25.833Z,25.48
2023-04-22T17:14:55.374Z,25.40
2023-04-22T17:17:25.956Z,25.73
2023-04-22T17:19:55.414Z,25.59
2023-04-22T17:22:24.897Z,25.22
2023-04-22T17:24:56.701Z,24.59
2023-04-22T17:27:25.843Z,24.31
2023-04-22T17:29:55.417Z,24.24
2023-04-22T17:32:26.066Z,24.09
2023-04-22T17:34:55.780Z,23.81
2023-04-22T17:37:24.900Z,23.53
2023-04-22T17:39:56.313Z,23.30
2023-04-22T17:42:38.871Z,23.38
2023-04-22T17:45:14.718Z,23.12
2023-04-22T17:47:45.295Z,23.11
2023-04-22T17:50:14.768Z,22.81
2023-04-22T17:52:44.228Z,22.85
2023-04-22T17:55:13.692Z,22.69
2023-04-22T17:57:42.910Z,22.79
2023-04-22T18:00:14.562Z,22.49
2023-04-22T18:02:45.312Z,22.67
2023-04-22T18:05:15.219Z,22.50
2023-04-22T18:07:44.429Z,22.42
2023-04-22T18:10:14.612Z,22.53
2023-04-22T18:12:43.837Z,22.31
2023-04-22T18:15:13.276Z,22.46
2023-04-22T18:17:42.597Z,22.34
2023-04-22T18:20:18.638Z,22.30
2023-04-22T18:22:49.897Z,22.17
2023-04-22T18:25:19.553Z,21.94
2023-04-22T18:27:50.785Z,22.21
2023-04-22T18:30:20.422Z,22.13
2023-04-22T18:32:49.724Z,22.20
2023-04-22T18:35:21.094Z,22.40
2023-04-22T18:37:50.475Z,22.42
2023-04-22T18:40:21.236Z,22.14
2023-04-22T18:42:50.298Z,22.07
2023-04-22T18:45:22.852Z,22.11
2023-04-22T18:47:52.110Z,22.16
2023-04-22T18:50:23.103Z,22.04
2023-04-22T18:52:52.544Z,21.83
2023-04-22T18:55:22.206Z,21.69
2023-04-22T18:57:51.666Z,21.76
2023-04-22T19:00:21.539Z,21.78
2023-04-22T19:02:50.858Z,21.79
2023-04-22T19:05:22.138Z,21.65
2023-04-22T19:07:52.000Z,21.76
2023-04-22T19:10:22.174Z,21.60
2023-04-22T19:12:51.322Z,21.44
2023-04-22T19:15:21.453Z,21.34
2023-04-22T19:17:51.159Z,21.10
2023-04-22T19:20:22.279Z,20.88
2023-04-22T19:22:51.612Z,20.80
2023-04-22T19:25:21.730Z,20.78
2023-04-22T19:27:51.064Z,20.79
2023-04-22T19:30:20.790Z,20.78
2023-04-22T19:32:50.124Z,20.65
2023-04-22T19:35:19.680Z,20.67
2023-04-22T19:37:50.550Z,20.55
2023-04-22T19:40:20.298Z,20.51
2023-04-22T19:42:49.465Z,20.51
2023-04-22T19:45:19.176Z,20.49
2023-04-22T19:47:48.915Z,20.46
2023-04-22T19:50:18.916Z,20.60
2023-04-22T19:52:50.953Z,20.53
2023-04-22T19:55:21.022Z,20.41
2023-04-22T19:57:50.756Z,20.13
2023-04-22T20:00:21.926Z,20.13
2023-04-22T20:02:51.961Z,20.38
2023-04-22T20:05:22.581Z,20.39
2023-04-22T20:07:54.406Z,20.30
2023-04-22T20:10:23.972Z,20.19
2023-04-22T20:12:53.398Z,20.22
2023-04-22T20:15:23.354Z,19.99
2023-04-22T20:17:54.040Z,20.00
2023-04-22T20:20:24.061Z,19.81
2023-04-22T20:22:57.247Z,19.78
2023-04-22T20:25:28.818Z,19.40
2023-04-22T20:27:58.580Z,18.95
2023-04-22T20:30:28.693Z,19.08
2023-04-22T20:32:58.425Z,18.99
2023-04-22T20:35:28.632Z,19.23
2023-04-22T20:38:02.593Z,19.19
2023-04-22T20:40:33.885Z,18.91
2023-04-22T20:43:03.384Z,18.56
2023-04-22T20:45:32.957Z,18.48
2023-04-22T20:48:02.551Z,18.66
2023-04-22T20:50:33.653Z,18.79
2023-04-22T20:53:05.457Z,18.60
2023-04-22T20:55:37.185Z,18.76
2023-04-22T20:58:06.698Z,18.48
2023-04-22T21:00:36.317Z,18.38
2023-04-22T21:03:08.899Z,18.62
2023-04-22T21:05:41.390Z,18.62
2023-04-22T21:08:24.883Z,18.98
2023-04-22T21:10:56.499Z,18.62
2023-04-22T21:13:26.257Z,18.71
2023-04-22T21:16:00.204Z,18.70
2023-04-22T21:18:32.494Z,18.46
2023-04-22T21:21:05.006Z,18.47
2023-04-22T21:23:36.147Z,18.45
2023-04-22T21:26:05.987Z,18.71
2023-04-22T21:28:35.755Z,18.55
2023-04-22T21:31:06.104Z,18.52
2023-04-22T21:33:35.401Z,18.43
2023-04-22T21:36:05.485Z,18.32
2023-04-22T21:38:36.168Z,18.08
2023-04-22T21:41:06.244Z,18.01
2023-04-22T21:43:35.837Z,18.02
2023-04-22T21:46:05.780Z,18.35
2023-04-22T21:48:35.050Z,18.52
2023-04-22T21:51:04.494Z,18.41
2023-04-22T21:53:35.171Z,18.38
2023-04-22T21:56:04.648Z,18.32
2023-04-22T21:58:33.901Z,18.25
2023-04-22T22:01:03.467Z,18.28
2023-04-22T22:03:32.939Z,18.47
2023-04-22T22:06:02.521Z,18.43
2023-04-22T22:08:31.938Z,18.20
2023-04-22T22:11:03.987Z,18.22
2023-04-22T22:13:33.993Z,18.27
2023-04-22T22:16:03.651Z,18.08
2023-04-22T22:18:32.906Z,17.83
2023-04-22T22:21:02.322Z,17.98
2023-04-22T22:23:31.409Z,17.86
2023-04-22T22:26:02.438Z,17.94
2023-04-22T22:28:31.665Z,17.97
2023-04-22T22:31:02.530Z,17.10
2023-04-22T22:33:31.752Z,17.24
2023-04-22T22:36:01.301Z,17.30
2023-04-22T22:38:30.569Z,17.13
2023-04-22T22:41:01.335Z,17.29
2023-04-22T22:43:30.580Z,17.37
2023-04-22T22:46:00.084Z,17.56
2023-04-22T22:48:29.557Z,17.62
2023-04-22T22:50:59.352Z,17.58
2023-04-22T22:53:28.512Z,17.61
2023-04-22T22:55:57.936Z,17.71
2023-04-22T22:58:28.766Z,17.85
2023-04-22T23:00:58.350Z,17.48
2023-04-22T23:03:27.603Z,17.64
2023-04-22T23:05:57.482Z,17.57
2023-04-22T23:08:26.639Z,17.55
2023-04-22T23:10:55.928Z,17.37
2023-04-22T23:13:25.308Z,17.66
2023-04-22T23:15:56.240Z,17.53
2023-04-22T23:18:26.770Z,17.76
2023-04-22T23:20:57.428Z,17.60
2023-04-22T23:23:28.209Z,17.64
2023-04-22T23:26:00.782Z,17.54
2023-04-22T23:28:30.554Z,17.64
2023-04-22T23:31:04.352Z,17.31
2023-04-22T23:33:36.162Z,17.41
2023-04-22T23:36:08.740Z,17.30
2023-04-22T23:38:37.833Z,16.98
2023-04-22T23:41:07.302Z,17.22
2023-04-22T23:43:36.467Z,17.28
2023-04-22T23:46:07.601Z,17.31
2023-04-22T23:48:36.766Z,17.24
2023-04-22T23:51:06.692Z,17.17
2023-04-22T23:53:36.029Z,16.90
2023-04-22T23:56:06.145Z,16.80
2023-04-22T23:58:35.759Z,16.88
